createdAt,value
2023-01-22T00:02:35.322Z,4.63
2023-01-22T00:05:22.021Z,4.35
2023-01-22T00:08:08.481Z,4.63
2023-01-22T00:10:55.403Z,4.13
2023-01-22T00:13:42.005Z,4.40
2023-01-22T00:16:28.483Z,4.25
2023-01-22T00:19:14.496Z,4.85
2023-01-22T00:22:01.087Z,4.53
2023-01-22T00:24:47.440Z,3.72
2023-01-22T00:27:33.701Z,5.05
2023-01-22T00:30:20.724Z,4.15
2023-01-22T00:33:07.210Z,4.50
2023-01-22T00:35:55.683Z,4.65
2023-01-22T00:38:42.421Z,4.65
2023-01-22T00:41:28.996Z,4.95
2023-01-22T00:44:15.143Z,5.00
2023-01-22T00:47:01.346Z,5.00
2023-01-22T00:49:47.434Z,4.97
2023-01-22T00:52:33.699Z,4.70
2023-01-22T00:55:19.777Z,4.07
2023-01-22T00:58:05.964Z,4.93
2023-01-22T01:00:53.121Z,4.93
2023-01-22T01:03:39.367Z,3.92
2023-01-22T01:06:25.520Z,5.00
2023-01-22T01:09:11.709Z,4.85
2023-01-22T01:11:57.751Z,4.38
2023-01-22T01:14:43.852Z,5.05
2023-01-22T01:17:30.195Z,4.50
2023-01-22T01:20:16.899Z,4.55
2023-01-22T01:23:03.065Z,4.20
2023-01-22T01:25:49.338Z,5.07
2023-01-22T01:28:36.596Z,5.07
2023-01-22T01:31:24.435Z,4.57
2023-01-22T01:34:10.810Z,4.90
2023-01-22T01:36:57.117Z,4.95
2023-01-22T01:39:43.834Z,5.40
2023-01-22T01:42:35.119Z,5.32
2023-01-22T01:45:30.610Z,5.20
2023-01-22T01:48:36.786Z,4.85
2023-01-22T01:51:29.145Z,4.65
2023-01-22T01:54:15.844Z,4.72
2023-01-22T01:57:04.931Z,4.88
2023-01-22T01:59:52.595Z,4.80
2023-01-22T02:02:40.684Z,5.13
2023-01-22T02:05:29.157Z,5.00
2023-01-22T02:08:16.363Z,5.30
2023-01-22T02:11:03.517Z,5.18
2023-01-22T02:13:52.329Z,5.30
2023-01-22T02:16:39.386Z,5.45
2023-01-22T02:19:25.394Z,5.13
2023-01-22T02:22:14.583Z,5.43
2023-01-22T02:25:01.418Z,5.18
2023-01-22T02:27:47.844Z,4.95
2023-01-22T02:30:34.651Z,5.53
2023-01-22T02:33:20.798Z,5.60
2023-01-22T02:36:07.108Z,5.55
2023-01-22T02:38:53.698Z,5.50
2023-01-22T02:41:39.770Z,5.18
2023-01-22T02:44:28.385Z,5.43
2023-01-22T02:47:14.637Z,5.35
2023-01-22T02:50:00.881Z,5.60
2023-01-22T02:52:49.194Z,5.57
2023-01-22T02:55:35.408Z,4.97
2023-01-22T02:58:21.391Z,4.78
2023-01-22T03:01:21.195Z,5.63
2023-01-22T03:04:12.327Z,5.13
2023-01-22T03:07:00.423Z,5.72
2023-01-22T03:09:48.311Z,5.72
2023-01-22T03:12:53.380Z,5.60
2023-01-22T03:16:00.279Z,6.00
2023-01-22T03:19:06.217Z,5.72
2023-01-22T03:21:52.623Z,5.40
2023-01-22T03:24:38.720Z,6.13
2023-01-22T03:27:26.488Z,5.15
2023-01-22T03:30:13.666Z,5.95
2023-01-22T03:32:59.670Z,6.03
2023-01-22T03:35:46.329Z,6.18
2023-01-22T03:38:37.895Z,6.25
2023-01-22T03:41:25.932Z,5.95
2023-01-22T03:44:14.299Z,6.00
2023-01-22T03:47:01.844Z,6.43
2023-01-22T03:49:48.670Z,6.20
2023-01-22T03:52:35.590Z,5.90
2023-01-22T03:55:22.441Z,6.35
2023-01-22T03:58:08.839Z,6.80
2023-01-22T04:00:57.872Z,7.05
2023-01-22T04:03:44.650Z,6.53
2023-01-22T04:06:31.556Z,6.65
2023-01-22T04:09:18.834Z,6.75
2023-01-22T04:12:06.572Z,6.82
2023-01-22T04:14:52.773Z,7.43
2023-01-22T04:17:40.936Z,7.70
2023-01-22T04:20:48.942Z,7.30
2023-01-22T04:23:50.386Z,7.55
2023-01-22T04:26:36.452Z,6.55
2023-01-22T04:29:22.961Z,7.03
2023-01-22T04:32:09.291Z,7.65
2023-01-22T04:35:18.072Z,7.43
2023-01-22T04:38:13.446Z,7.32
2023-01-22T04:41:01.039Z,7.57
2023-01-22T04:43:47.674Z,7.07
2023-01-22T04:46:34.182Z,8.10
2023-01-22T04:49:20.334Z,7.90
2023-01-22T04:52:08.146Z,8.15
2023-01-22T04:54:54.943Z,7.88
2023-01-22T04:57:44.754Z,7.88
2023-01-22T05:00:31.923Z,7.85
2023-01-22T05:03:20.651Z,8.00
2023-01-22T05:06:06.928Z,8.40
2023-01-22T05:08:55.520Z,8.20
2023-01-22T05:11:42.068Z,7.28
2023-01-22T05:14:28.614Z,7.80
2023-01-22T05:17:15.207Z,8.15
2023-01-22T05:20:01.766Z,8.00
2023-01-22T05:22:48.140Z,7.25
2023-01-22T05:25:34.868Z,8.23
2023-01-22T05:28:22.112Z,7.45
2023-01-22T05:31:24.272Z,8.25
2023-01-22T05:34:21.641Z,7.95
2023-01-22T05:37:08.235Z,8.20
2023-01-22T05:39:55.212Z,7.63
2023-01-22T05:42:42.228Z,8.32
2023-01-22T05:45:30.920Z,8.40
2023-01-22T05:48:32.781Z,8.52
2023-01-22T05:51:32.259Z,9.15
2023-01-22T05:54:19.338Z,10.07
2023-01-22T05:57:07.205Z,11.15
2023-01-22T05:59:54.701Z,10.68
2023-01-22T06:02:40.956Z,14.60
2023-01-22T06:05:27.617Z,15.98
2023-01-22T06:08:21.511Z,16.17
2023-01-22T06:11:14.521Z,16.85
2023-01-22T06:14:04.389Z,18.95
2023-01-22T06:16:52.074Z,19.92
2023-01-22T06:19:46.859Z,20.60
2023-01-22T06:22:35.670Z,21.55
2023-01-22T06:25:22.310Z,18.95
2023-01-22T06:28:29.206Z,19.48
2023-01-22T06:31:15.948Z,17.65
2023-01-22T06:34:01.992Z,17.13
2023-01-22T06:36:48.232Z,15.98
2023-01-22T06:39:34.277Z,13.77
2023-01-22T06:42:39.382Z,13.85
2023-01-22T06:45:25.849Z,14.90
2023-01-22T06:48:16.716Z,13.25
2023-01-22T06:51:03.735Z,14.30
2023-01-22T06:53:49.914Z,13.55
2023-01-22T06:56:38.567Z,12.88
2023-01-22T06:59:25.285Z,12.63
2023-01-22T07:02:16.954Z,11.23
2023-01-22T07:05:03.204Z,12.73
2023-01-22T07:07:49.432Z,10.48
2023-01-22T07:10:35.872Z,11.45
2023-01-22T07:13:22.568Z,10.73
2023-01-22T07:16:09.478Z,11.00
2023-01-22T07:18:55.829Z,11.70
2023-01-22T07:21:42.295Z,10.68
2023-01-22T07:24:28.465Z,10.77
2023-01-22T07:27:14.886Z,10.90
2023-01-22T07:30:01.061Z,11.68
2023-01-22T07:32:47.530Z,10.77
2023-01-22T07:35:34.532Z,10.85
2023-01-22T07:38:20.966Z,11.32
2023-01-22T07:41:20.262Z,11.05
2023-01-22T07:44:11.666Z,11.40
2023-01-22T07:46:57.840Z,11.32
2023-01-22T07:49:44.151Z,10.05
2023-01-22T07:52:30.166Z,10.73
2023-01-22T07:55:16.563Z,10.07
2023-01-22T07:58:03.882Z,17.83
2023-01-22T08:00:50.554Z,18.33
2023-01-22T08:03:37.967Z,31.60
2023-01-22T08:06:24.641Z,18.83
2023-01-22T08:09:10.745Z,19.10
2023-01-22T08:11:57.010Z,14.77
2023-01-22T08:14:43.063Z,11.02
2023-01-22T08:17:29.301Z,11.23
2023-01-22T08:20:15.388Z,11.90
2023-01-22T08:23:02.004Z,11.63
2023-01-22T08:25:48.108Z,11.30
2023-01-22T08:28:34.225Z,12.20
2023-01-22T08:31:27.867Z,11.65
2023-01-22T08:34:14.792Z,12.00
2023-01-22T08:37:00.886Z,12.57
2023-01-22T08:39:47.056Z,11.32
2023-01-22T08:42:33.272Z,13.43
2023-01-22T08:45:20.243Z,12.15
2023-01-22T08:48:06.568Z,13.15
2023-01-22T08:50:53.042Z,13.20
2023-01-22T08:53:39.423Z,14.50
2023-01-22T08:56:25.636Z,15.13
2023-01-22T08:59:11.924Z,15.95
2023-01-22T09:02:23.783Z,13.95
2023-01-22T09:05:10.480Z,11.65
2023-01-22T09:07:56.685Z,11.70
2023-01-22T09:10:43.641Z,10.98
2023-01-22T09:13:29.809Z,9.50
2023-01-22T09:16:16.064Z,8.73
2023-01-22T09:19:02.429Z,8.32
2023-01-22T09:21:48.682Z,8.70
2023-01-22T09:24:34.933Z,8.88
2023-01-22T09:27:20.943Z,7.72
2023-01-22T09:30:07.422Z,7.38
2023-01-22T09:32:54.021Z,7.85
2023-01-22T09:35:40.416Z,7.53
2023-01-22T09:38:26.599Z,7.60
2023-01-22T09:41:34.423Z,8.20
2023-01-22T09:44:23.825Z,8.18
2023-01-22T09:47:19.585Z,7.28
2023-01-22T09:50:08.259Z,7.05
2023-01-22T09:52:56.112Z,7.95
2023-01-22T09:55:47.391Z,6.40
2023-01-22T09:58:35.733Z,6.15
2023-01-22T10:01:22.857Z,6.13
2023-01-22T10:04:20.542Z,6.47
2023-01-22T10:07:11.455Z,6.95
2023-01-22T10:10:01.160Z,8.00
2023-01-22T10:12:50.094Z,8.25
2023-01-22T10:15:36.405Z,8.68
2023-01-22T10:18:36.029Z,9.23
2023-01-22T10:21:28.164Z,9.38
2023-01-22T10:24:14.934Z,7.88
2023-01-22T10:27:10.741Z,6.70
2023-01-22T10:29:59.413Z,7.57
2023-01-22T10:32:45.724Z,5.90
2023-01-22T10:35:32.733Z,5.85
2023-01-22T10:38:30.860Z,6.28
2023-01-22T10:41:21.592Z,6.07
2023-01-22T10:44:11.037Z,6.70
2023-01-22T10:47:07.495Z,5.53
2023-01-22T10:50:04.969Z,5.95
2023-01-22T10:52:54.912Z,5.70
2023-01-22T10:55:41.955Z,6.30
2023-01-22T10:58:39.195Z,6.25
2023-01-22T11:01:38.442Z,5.50
2023-01-22T11:04:26.618Z,5.22
2023-01-22T11:07:15.517Z,5.20
2023-01-22T11:10:07.687Z,5.65
2023-01-22T11:12:54.234Z,5.32
2023-01-22T11:15:59.198Z,5.07
2023-01-22T11:18:55.600Z,5.43
2023-01-22T11:21:46.694Z,5.50
2023-01-22T11:24:48.623Z,4.60
2023-01-22T11:27:41.237Z,5.10
2023-01-22T11:30:30.594Z,5.10
2023-01-22T11:33:28.941Z,4.82
2023-01-22T11:36:21.779Z,4.72
2023-01-22T11:39:20.946Z,5.15
2023-01-22T11:42:40.537Z,5.50
2023-01-22T11:45:47.561Z,5.47
2023-01-22T11:48:53.820Z,5.22
2023-01-22T11:51:52.530Z,5.13
2023-01-22T11:54:54.000Z,5.57
2023-01-22T11:57:43.809Z,6.13
2023-01-22T12:00:36.519Z,6.05
2023-01-22T12:03:31.643Z,5.30
2023-01-22T12:06:36.883Z,5.47
2023-01-22T12:09:46.565Z,5.72
2023-01-22T12:12:48.229Z,4.93
2023-01-22T12:15:47.108Z,4.72
2023-01-22T12:19:06.228Z,5.10
2023-01-22T12:22:04.746Z,5.20
2023-01-22T12:24:54.958Z,5.03
2023-01-22T12:27:51.038Z,5.00
2023-01-22T12:30:56.347Z,5.15
2023-01-22T12:33:44.044Z,4.80
2023-01-22T12:36:32.830Z,5.00
2023-01-22T12:39:18.983Z,4.80
2023-01-22T12:42:05.223Z,5.03
2023-01-22T12:44:54.578Z,4.90
2023-01-22T12:47:46.899Z,5.32
2023-01-22T12:50:33.483Z,4.88
2023-01-22T12:53:24.847Z,4.97
2023-01-22T12:56:11.984Z,4.82
2023-01-22T12:58:59.401Z,5.32
2023-01-22T13:01:45.424Z,5.20
2023-01-22T13:04:32.422Z,5.22
2023-01-22T13:07:37.652Z,5.97
2023-01-22T13:10:26.082Z,5.38
2023-01-22T13:13:31.051Z,5.00
2023-01-22T13:16:17.505Z,5.07
2023-01-22T13:19:23.797Z,4.78
2023-01-22T13:22:16.693Z,5.53
2023-01-22T13:25:02.853Z,5.30
2023-01-22T13:27:49.140Z,5.50
2023-01-22T13:30:35.301Z,5.30
2023-01-22T13:33:21.793Z,5.70
2023-01-22T13:36:11.759Z,5.43
2023-01-22T13:38:59.523Z,5.05
2023-01-22T13:41:48.502Z,5.47
2023-01-22T13:44:40.076Z,5.30
2023-01-22T13:47:33.411Z,5.50
2023-01-22T13:53:06.662Z,5.80
2023-01-22T13:55:52.944Z,5.78
2023-01-22T13:58:48.349Z,6.38
2023-01-22T14:01:36.459Z,6.07
2023-01-22T14:04:37.272Z,5.43
2023-01-22T14:07:24.909Z,5.78
2023-01-22T14:10:13.215Z,6.18
2023-01-22T14:13:04.111Z,6.32
2023-01-22T14:15:57.980Z,6.53
2023-01-22T14:18:45.393Z,6.32
2023-01-22T14:21:33.890Z,6.20
2023-01-22T14:24:20.186Z,6.07
2023-01-22T14:27:07.176Z,6.22
2023-01-22T14:29:54.076Z,6.28
2023-01-22T14:32:40.355Z,6.00
2023-01-22T14:35:27.635Z,6.57
2023-01-22T14:38:14.267Z,7.13
2023-01-22T14:41:04.104Z,6.20
2023-01-22T14:43:50.655Z,6.47
2023-01-22T14:46:38.363Z,6.47
2023-01-22T14:49:24.644Z,7.13
2023-01-22T14:52:11.119Z,7.05
2023-01-22T14:54:57.556Z,6.63
2023-01-22T14:57:44.001Z,6.95
2023-01-22T15:00:30.432Z,6.53
2023-01-22T15:03:16.836Z,6.32
2023-01-22T15:06:03.032Z,7.22
2023-01-22T15:08:49.319Z,7.13
2023-01-22T15:11:35.390Z,7.20
2023-01-22T15:14:21.597Z,6.93
2023-01-22T15:17:07.962Z,6.80
2023-01-22T15:19:54.388Z,6.78
2023-01-22T15:30:47.034Z,6.70
2023-01-22T15:33:33.028Z,7.10
2023-01-22T15:36:19.120Z,6.30
2023-01-22T15:39:05.969Z,6.47
2023-01-22T15:41:52.444Z,6.40
2023-01-22T15:44:39.158Z,6.57
2023-01-22T15:47:25.466Z,6.63
2023-01-22T15:50:11.800Z,6.13
2023-01-22T15:52:58.382Z,6.15
2023-01-22T15:55:51.546Z,6.13
2023-01-22T15:58:37.789Z,5.50
2023-01-22T16:01:24.607Z,5.32
2023-01-22T16:04:12.357Z,5.47
2023-01-22T16:06:58.881Z,4.90
2023-01-22T16:09:45.300Z,5.65
2023-01-22T16:12:31.528Z,5.15
2023-01-22T16:15:17.930Z,5.25
2023-01-22T16:18:04.186Z,5.38
2023-01-22T16:20:50.380Z,4.93
2023-01-22T16:23:37.662Z,5.35
2023-01-22T16:26:25.942Z,5.22
2023-01-22T16:29:12.346Z,5.10
2023-01-22T16:31:58.623Z,5.15
2023-01-22T16:34:44.660Z,5.20
2023-01-22T16:37:30.795Z,5.40
2023-01-22T16:40:18.599Z,5.82
2023-01-22T16:43:05.773Z,6.03
2023-01-22T16:45:51.913Z,5.85
2023-01-22T16:48:38.248Z,5.85
2023-01-22T16:51:25.343Z,5.57
2023-01-22T16:54:17.273Z,5.68
2023-01-22T16:57:04.517Z,5.60
2023-01-22T16:59:51.067Z,4.63
2023-01-22T17:02:37.324Z,5.20
2023-01-22T17:05:23.537Z,5.45
2023-01-22T17:08:09.863Z,5.50
2023-01-22T17:10:56.088Z,5.18
2023-01-22T17:13:42.095Z,5.75
2023-01-22T17:16:28.417Z,5.07
2023-01-22T17:19:14.479Z,5.38
2023-01-22T17:22:14.184Z,5.05
2023-01-22T17:25:00.661Z,5.38
2023-01-22T17:27:48.730Z,4.70
2023-01-22T17:30:35.017Z,5.82
2023-01-22T17:33:21.213Z,4.78
2023-01-22T17:36:08.069Z,4.75
2023-01-22T17:38:56.617Z,5.35
2023-01-22T17:41:43.115Z,4.68
2023-01-22T17:44:30.104Z,4.65
2023-01-22T17:47:16.899Z,4.90
2023-01-22T17:50:02.967Z,4.70
2023-01-22T17:52:48.932Z,4.80
2023-01-22T17:55:35.106Z,4.75
2023-01-22T17:58:21.533Z,5.03
2023-01-22T18:01:08.345Z,4.90
2023-01-22T18:03:56.653Z,4.70
2023-01-22T18:06:43.912Z,4.35
2023-01-22T18:09:30.747Z,4.65
2023-01-22T18:12:16.821Z,4.20
2023-01-22T18:15:02.981Z,4.70
2023-01-22T18:17:49.459Z,4.72
2023-01-22T18:20:35.767Z,4.65
2023-01-22T18:23:22.151Z,3.53
2023-01-22T18:26:08.727Z,3.42
2023-01-22T18:28:56.141Z,3.13
2023-01-22T18:31:43.070Z,3.40
2023-01-22T18:34:29.372Z,3.80
2023-01-22T18:37:15.514Z,3.50
2023-01-22T18:40:02.004Z,3.70
2023-01-22T18:42:48.946Z,3.88
2023-01-22T18:45:40.517Z,3.45
2023-01-22T18:48:26.764Z,3.22
2023-01-22T18:51:13.514Z,4.00
2023-01-22T18:54:00.621Z,3.88
2023-01-22T18:56:47.427Z,3.83
2023-01-22T18:59:34.375Z,3.85
2023-01-22T19:02:22.022Z,3.70
2023-01-22T19:05:08.682Z,4.03
2023-01-22T19:07:55.062Z,3.58
2023-01-22T19:10:41.514Z,3.75
2023-01-22T19:13:28.815Z,3.70
2023-01-22T19:16:17.622Z,3.75
2023-01-22T19:19:07.924Z,3.67
2023-01-22T19:21:55.451Z,3.60
2023-01-22T19:24:41.517Z,3.47
2023-01-22T19:27:28.231Z,3.75
2023-01-22T19:30:15.052Z,3.80
2023-01-22T19:33:01.102Z,3.67
2023-01-22T19:35:49.577Z,3.90
2023-01-22T19:38:36.547Z,3.60
2023-01-22T19:41:23.521Z,4.03
2023-01-22T19:44:10.766Z,3.78
2023-01-22T19:46:57.528Z,4.10
2023-01-22T19:49:43.900Z,3.80
2023-01-22T19:52:30.448Z,4.10
2023-01-22T19:55:19.969Z,3.90
2023-01-22T19:58:06.519Z,3.90
2023-01-22T20:00:54.513Z,4.30
2023-01-22T20:03:41.169Z,4.15
2023-01-22T20:06:27.557Z,4.15
2023-01-22T20:09:17.538Z,3.97
2023-01-22T20:12:06.623Z,3.60
2023-01-22T20:14:53.012Z,4.07
2023-01-22T20:17:39.256Z,3.90
2023-01-22T20:20:26.285Z,3.92
2023-01-22T20:23:12.467Z,4.10
2023-01-22T20:26:00.691Z,4.00
2023-01-22T20:28:47.407Z,4.05
2023-01-22T20:31:34.019Z,4.28
2023-01-22T20:34:20.165Z,4.15
2023-01-22T20:37:06.375Z,4.00
2023-01-22T20:39:52.590Z,4.07
2023-01-22T20:42:39.643Z,4.40
2023-01-22T20:45:25.924Z,4.30
2023-01-22T20:48:12.963Z,4.70
2023-01-22T20:50:59.649Z,4.70
2023-01-22T20:53:47.014Z,6.18
2023-01-22T20:56:33.946Z,6.30
2023-01-22T20:59:20.201Z,7.43
2023-01-22T21:02:06.260Z,7.47
2023-01-22T21:04:52.977Z,7.03
2023-01-22T21:07:39.236Z,7.43
2023-01-22T21:10:25.552Z,7.07
2023-01-22T21:13:12.717Z,6.10
2023-01-22T21:16:02.190Z,5.55
2023-01-22T21:18:49.203Z,5.55
2023-01-22T21:21:35.963Z,5.72
2023-01-22T21:24:21.963Z,5.60
2023-01-22T21:27:08.104Z,5.57
2023-01-22T21:29:55.783Z,5.07
2023-01-22T21:32:41.927Z,5.50
2023-01-22T21:35:28.011Z,5.03
2023-01-22T21:38:14.625Z,4.97
2023-01-22T21:41:15.213Z,5.20
2023-01-22T21:44:20.504Z,4.85
2023-01-22T21:47:06.938Z,4.65
2023-01-22T21:49:53.304Z,4.75
2023-01-22T21:52:39.367Z,4.55
2023-01-22T21:55:26.835Z,4.68
2023-01-22T21:58:13.228Z,4.40
2023-01-22T22:01:09.312Z,5.00
2023-01-22T22:03:55.564Z,5.15
2023-01-22T22:06:41.646Z,4.60
2023-01-22T22:09:29.041Z,4.30
2023-01-22T22:12:15.486Z,4.50
2023-01-22T22:15:01.786Z,5.05
2023-01-22T22:17:49.071Z,4.45
2023-01-22T22:20:36.068Z,4.75
2023-01-22T22:23:22.282Z,4.95
2023-01-22T22:26:09.446Z,5.03
2023-01-22T22:28:55.905Z,5.15
2023-01-22T22:31:42.305Z,5.32
2023-01-22T22:34:28.951Z,4.78
2023-01-22T22:37:15.098Z,5.40
2023-01-22T22:40:01.213Z,5.75
2023-01-22T22:42:47.419Z,5.30
2023-01-22T22:45:36.700Z,6.13
2023-01-22T22:48:23.009Z,5.60
2023-01-22T22:51:13.651Z,4.80
2023-01-22T22:54:01.713Z,5.63
2023-01-22T22:56:49.082Z,5.50
2023-01-22T22:59:35.369Z,6.32
2023-01-22T23:02:22.061Z,6.13
2023-01-22T23:05:08.899Z,6.38
2023-01-22T23:07:55.320Z,5.68
2023-01-22T23:10:42.064Z,5.85
2023-01-22T23:13:28.259Z,6.50
2023-01-22T23:16:15.513Z,5.78
2023-01-22T23:19:04.908Z,6.20
2023-01-22T23:21:53.134Z,6.53
2023-01-22T23:24:40.379Z,6.18
2023-01-22T23:27:26.529Z,7.03
2023-01-22T23:30:13.570Z,7.03
2023-01-22T23:33:00.099Z,7.32
2023-01-22T23:35:46.900Z,7.25
2023-01-22T23:38:33.287Z,8.18
2023-01-22T23:41:19.964Z,8.40
2023-01-22T23:44:06.193Z,8.93
2023-01-22T23:46:52.426Z,8.90
2023-01-22T23:49:38.509Z,9.52
2023-01-22T23:52:24.693Z,9.73
2023-01-22T23:55:11.670Z,9.65
2023-01-22T23:57:58.120Z,9.70
